sensor_id;sensor_type;location;lat;lon;timestamp;pressure;altitude;pressure_sealevel;temperature;humidity
48624;BME280;34422;45.802;16.114;2023-05-02T00:01:18;100033.66;;;14.17;100.00
48624;BME280;34422;45.802;16.114;2023-05-02T00:03:45;100060.56;;;14.30;100.00
48624;BME280;34422;45.802;16.114;2023-05-02T00:06:12;100048.19;;;14.11;100.00
48624;BME280;34422;45.802;16.114;2023-05-02T00:08:39;100061.66;;;14.29;100.00
48624;BME280;34422;45.802;16.114;2023-05-02T00:11:06;100043.00;;;14.21;100.00
48624;BME280;34422;45.802;16.114;2023-05-02T00:13:32;100039.16;;;14.22;100.00
48624;BME280;34422;45.802;16.114;2023-05-02T00:15:59;100031.34;;;14.26;100.00
48624;BME280;34422;45.802;16.114;2023-05-02T00:18:26;100042.78;;;14.39;100.00
48624;BME280;34422;45.802;16.114;2023-05-02T00:20:54;100023.88;;;14.33;100.00
48624;BME280;34422;45.802;16.114;2023-05-02T00:23:21;100041.09;;;14.50;100.00
48624;BME280;34422;45.802;16.114;2023-05-02T00:25:48;100031.56;;;14.47;100.00
48624;BME280;34422;45.802;16.114;2023-05-02T00:28:15;100017.63;;;14.32;100.00
48624;BME280;34422;45.802;16.114;2023-05-02T00:30:45;100001.94;;;14.39;100.00
48624;BME280;34422;45.802;16.114;2023-05-02T00:33:12;100031.63;;;14.52;100.00
48624;BME280;34422;45.802;16.114;2023-05-02T00:35:40;100002.34;;;14.31;100.00
48624;BME280;34422;45.802;16.114;2023-05-02T00:38:07;100012.84;;;14.39;100.00
48624;BME280;34422;45.802;16.114;2023-05-02T00:40:48;100013.84;;;14.33;100.00
48624;BME280;34422;45.802;16.114;2023-05-02T00:43:16;99996.31;;;14.29;100.00
48624;BME280;34422;45.802;16.114;2023-05-02T00:45:44;100012.84;;;14.39;100.00
48624;BME280;34422;45.802;16.114;2023-05-02T00:48:11;100005.66;;;14.33;100.00
48624;BME280;34422;45.802;16.114;2023-05-02T00:50:40;99989.88;;;14.35;100.00
48624;BME280;34422;45.802;16.114;2023-05-02T00:53:09;99964.44;;;14.13;100.00
48624;BME280;34422;45.802;16.114;2023-05-02T00:55:36;99962.78;;;14.12;100.00
48624;BME280;34422;45.802;16.114;2023-05-02T00:58:13;99977.28;;;14.29;100.00
48624;BME280;34422;45.802;16.114;2023-05-02T01:00:54;99974.75;;;14.11;100.00
48624;BME280;34422;45.802;16.114;2023-05-02T01:11:40;99975.22;;;14.36;100.00
48624;BME280;34422;45.802;16.114;2023-05-02T01:14:10;99969.66;;;14.43;100.00
48624;BME280;34422;45.802;16.114;2023-05-02T01:16:38;99942.56;;;14.36;100.00
48624;BME280;34422;45.802;16.114;2023-05-02T01:19:19;99962.59;;;14.58;100.00
48624;BME280;34422;45.802;16.114;2023-05-02T01:21:50;99922.66;;;14.47;100.00
48624;BME280;34422;45.802;16.114;2023-05-02T01:24:24;99922.81;;;14.57;100.00
48624;BME280;34422;45.802;16.114;2023-05-02T01:29:44;99940.81;;;14.75;100.00
48624;BME280;34422;45.802;16.114;2023-05-02T01:32:13;99916.31;;;14.58;100.00
48624;BME280;34422;45.802;16.114;2023-05-02T01:34:43;99923.81;;;14.68;100.00
48624;BME280;34422;45.802;16.114;2023-05-02T01:37:13;99928.91;;;14.81;100.00
48624;BME280;34422;45.802;16.114;2023-05-02T01:39:41;99939.22;;;14.96;100.00
48624;BME280;34422;45.802;16.114;2023-05-02T01:42:10;99919.53;;;14.89;100.00
48624;BME280;34422;45.802;16.114;2023-05-02T01:44:39;99924.97;;;14.89;100.00
48624;BME280;34422;45.802;16.114;2023-05-02T01:47:08;99920.06;;;14.91;100.00
48624;BME280;34422;45.802;16.114;2023-05-02T01:49:36;99906.19;;;14.92;100.00
48624;BME280;34422;45.802;16.114;2023-05-02T01:52:06;99915.03;;;15.16;100.00
48624;BME280;34422;45.802;16.114;2023-05-02T01:54:36;99911.03;;;15.24;100.00
48624;BME280;34422;45.802;16.114;2023-05-02T01:57:06;99912.69;;;15.25;100.00
48624;BME280;34422;45.802;16.114;2023-05-02T01:59:35;99896.84;;;15.05;100.00
48624;BME280;34422;45.802;16.114;2023-05-02T02:02:03;99901.94;;;15.18;100.00
48624;BME280;34422;45.802;16.114;2023-05-02T02:04:33;99911.34;;;15.27;100.00
48624;BME280;34422;45.802;16.114;2023-05-02T02:07:05;99921.59;;;15.20;100.00
48624;BME280;34422;45.802;16.114;2023-05-02T02:09:33;99932.59;;;15.25;100.00
48624;BME280;34422;45.802;16.114;2023-05-02T02:15:16;99934.16;;;15.21;100.00
48624;BME280;34422;45.802;16.114;2023-05-02T02:17:46;99911.06;;;15.07;100.00
48624;BME280;34422;45.802;16.114;2023-05-02T02:20:14;99904.94;;;15.17;100.00
48624;BME280;34422;45.802;16.114;2023-05-02T02:22:43;99921.09;;;15.23;100.00
48624;BME280;34422;45.802;16.114;2023-05-02T02:25:14;99935.63;;;15.29;100.00
48624;BME280;34422;45.802;16.114;2023-05-02T02:27:41;99916.63;;;15.17;100.00
48624;BME280;34422;45.802;16.114;2023-05-02T02:30:09;99905.28;;;15.04;100.00
48624;BME280;34422;45.802;16.114;2023-05-02T02:32:36;99926.09;;;15.10;100.00
48624;BME280;34422;45.802;16.114;2023-05-02T02:35:04;99915.69;;;14.90;100.00
48624;BME280;34422;45.802;16.114;2023-05-02T02:37:38;99905.13;;;14.77;100.00
48624;BME280;34422;45.802;16.114;2023-05-02T02:45:32;99907.03;;;13.98;100.00
48624;BME280;34422;45.802;16.114;2023-05-02T02:56:18;99950.34;;;13.87;100.00
48624;BME280;34422;45.802;16.114;2023-05-02T02:58:54;99959.72;;;13.80;100.00
48624;BME280;34422;45.802;16.114;2023-05-02T03:01:24;99921.03;;;13.49;100.00
48624;BME280;34422;45.802;16.114;2023-05-02T03:03:53;99964.63;;;13.66;100.00
48624;BME280;34422;45.802;16.114;2023-05-02T03:06:20;99956.13;;;13.51;100.00
48624;BME280;34422;45.802;16.114;2023-05-02T03:08:47;99960.63;;;13.34;100.00
48624;BME280;34422;45.802;16.114;2023-05-02T03:11:14;99970.28;;;13.53;100.00
48624;BME280;34422;45.802;16.114;2023-05-02T03:13:41;99973.00;;;13.53;100.00
48624;BME280;34422;45.802;16.114;2023-05-02T03:16:45;99980.69;;;13.56;100.00
48624;BME280;34422;45.802;16.114;2023-05-02T03:19:12;99987.31;;;13.60;100.00
48624;BME280;34422;45.802;16.114;2023-05-02T03:21:39;99981.50;;;13.57;100.00
48624;BME280;34422;45.802;16.114;2023-05-02T03:24:07;99980.47;;;13.46;100.00
48624;BME280;34422;45.802;16.114;2023-05-02T03:26:33;99987.22;;;13.43;100.00
48624;BME280;34422;45.802;16.114;2023-05-02T03:29:01;99986.28;;;13.38;100.00
48624;BME280;34422;45.802;16.114;2023-05-02T03:31:28;99987.91;;;13.27;100.00
48624;BME280;34422;45.802;16.114;2023-05-02T03:33:54;99952.38;;;13.17;100.00
48624;BME280;34422;45.802;16.114;2023-05-02T03:36:22;99962.91;;;13.25;100.00
48624;BME280;34422;45.802;16.114;2023-05-02T03:38:48;99976.47;;;13.37;100.00
48624;BME280;34422;45.802;16.114;2023-05-02T03:41:15;99986.75;;;13.35;100.00
48624;BME280;34422;45.802;16.114;2023-05-02T03:43:42;99990.38;;;13.40;100.00
48624;BME280;34422;45.802;16.114;2023-05-02T03:46:09;99989.00;;;13.38;100.00
48624;BME280;34422;45.802;16.114;2023-05-02T03:48:37;99988.50;;;13.41;100.00
48624;BME280;34422;45.802;16.114;2023-05-02T03:51:05;99980.25;;;13.36;100.00
48624;BME280;34422;45.802;16.114;2023-05-02T03:53:33;99977.88;;;13.28;100.00
48624;BME280;34422;45.802;16.114;2023-05-02T03:56:00;99968.91;;;13.15;100.00
48624;BME280;34422;45.802;16.114;2023-05-02T03:58:26;100003.66;;;13.37;100.00
48624;BME280;34422;45.802;16.114;2023-05-02T04:00:53;99999.88;;;13.38;100.00
48624;BME280;34422;45.802;16.114;2023-05-02T04:03:21;99985.09;;;13.34;100.00
48624;BME280;34422;45.802;16.114;2023-05-02T04:05:48;99998.22;;;13.37;100.00
48624;BME280;34422;45.802;16.114;2023-05-02T04:08:17;99993.94;;;13.41;100.00
48624;BME280;34422;45.802;16.114;2023-05-02T04:10:44;100002.22;;;13.46;100.00
48624;BME280;34422;45.802;16.114;2023-05-02T04:13:11;100001.03;;;13.42;100.00
48624;BME280;34422;45.802;16.114;2023-05-02T04:15:38;100013.09;;;13.46;100.00
48624;BME280;34422;45.802;16.114;2023-05-02T04:18:05;100007.78;;;13.51;100.00
48624;BME280;34422;45.802;16.114;2023-05-02T04:20:32;100012.63;;;13.49;100.00
48624;BME280;34422;45.802;16.114;2023-05-02T04:22:59;100006.97;;;13.39;100.00
48624;BME280;34422;45.802;16.114;2023-05-02T04:25:26;100027.63;;;13.51;100.00
48624;BME280;34422;45.802;16.114;2023-05-02T04:27:53;100029.03;;;13.54;100.00
48624;BME280;34422;45.802;16.114;2023-05-02T04:30:20;100045.81;;;13.63;100.00
48624;BME280;34422;45.802;16.114;2023-05-02T04:32:47;100028.78;;;13.56;100.00
48624;BME280;34422;45.802;16.114;2023-05-02T04:35:13;100040.03;;;13.59;100.00
48624;BME280;34422;45.802;16.114;2023-05-02T04:37:40;100031.03;;;13.59;100.00
48624;BME280;34422;45.802;16.114;2023-05-02T04:40:08;100046.66;;;13.63;100.00
48624;BME280;34422;45.802;16.114;2023-05-02T04:42:35;100060.00;;;13.53;100.00
48624;BME280;34422;45.802;16.114;2023-05-02T04:45:01;100049.72;;;13.55;100.00
48624;BME280;34422;45.802;16.114;2023-05-02T04:47:28;100031.88;;;13.47;100.00
48624;BME280;34422;45.802;16.114;2023-05-02T04:49:55;100041.09;;;13.58;100.00
48624;BME280;34422;45.802;16.114;2023-05-02T04:52:22;100046.66;;;13.63;100.00
48624;BME280;34422;45.802;16.114;2023-05-02T04:54:48;100039.41;;;13.69;100.00
48624;BME280;34422;45.802;16.114;2023-05-02T04:57:15;100054.56;;;13.76;100.00
48624;BME280;34422;45.802;16.114;2023-05-02T04:59:42;100052.66;;;13.77;100.00
48624;BME280;34422;45.802;16.114;2023-05-02T05:02:09;100048.75;;;13.73;100.00
48624;BME280;34422;45.802;16.114;2023-05-02T05:04:37;100052.78;;;13.70;100.00
48624;BME280;34422;45.802;16.114;2023-05-02T05:07:04;100048.63;;;13.68;100.00
48624;BME280;34422;45.802;16.114;2023-05-02T05:09:31;100050.44;;;13.62;100.00
48624;BME280;34422;45.802;16.114;2023-05-02T05:11:58;100064.38;;;13.77;100.00
48624;BME280;34422;45.802;16.114;2023-05-02T05:14:25;100058.94;;;13.77;100.00
48624;BME280;34422;45.802;16.114;2023-05-02T05:16:51;100065.03;;;13.96;100.00
48624;BME280;34422;45.802;16.114;2023-05-02T05:19:18;100061.00;;;13.99;100.00
48624;BME280;34422;45.802;16.114;2023-05-02T05:21:45;100061.72;;;14.06;100.00
48624;BME280;34422;45.802;16.114;2023-05-02T05:24:12;100067.16;;;14.06;100.00
48624;BME280;34422;45.802;16.114;2023-05-02T05:26:38;100056.28;;;14.06;100.00
48624;BME280;34422;45.802;16.114;2023-05-02T05:29:05;100051.41;;;14.08;100.00
48624;BME280;34422;45.802;16.114;2023-05-02T05:31:33;100043.22;;;14.08;100.00
48624;BME280;34422;45.802;16.114;2023-05-02T05:33:59;100041.09;;;14.10;100.00
48624;BME280;34422;45.802;16.114;2023-05-02T05:36:27;100040.63;;;14.13;100.00
48624;BME280;34422;45.802;16.114;2023-05-02T05:38:54;100055.66;;;14.15;100.00
48624;BME280;34422;45.802;16.114;2023-05-02T05:41:21;100045.41;;;14.06;100.00
48624;BME280;34422;45.802;16.114;2023-05-02T05:43:48;100061.66;;;14.29;100.00
48624;BME280;34422;45.802;16.114;2023-05-02T05:46:15;100064.69;;;14.44;100.00
48624;BME280;34422;45.802;16.114;2023-05-02T05:48:42;100058.09;;;14.40;100.00
48624;BME280;34422;45.802;16.114;2023-05-02T05:51:09;100064.75;;;14.61;100.00
48624;BME280;34422;45.802;16.114;2023-05-02T05:53:35;100060.63;;;14.58;100.00
48624;BME280;34422;45.802;16.114;2023-05-02T05:56:10;100058.75;;;14.76;100.00
48624;BME280;34422;45.802;16.114;2023-05-02T05:58:37;100074.38;;;14.97;100.00
48624;BME280;34422;45.802;16.114;2023-05-02T06:01:05;100074.22;;;14.87;100.00
48624;BME280;34422;45.802;16.114;2023-05-02T06:03:32;100077.84;;;15.09;100.00
48624;BME280;34422;45.802;16.114;2023-05-02T06:05:59;100069.25;;;15.17;100.00
48624;BME280;34422;45.802;16.114;2023-05-02T06:08:26;100072.25;;;15.33;100.00
48624;BME280;34422;45.802;16.114;2023-05-02T06:10:53;100072.66;;;15.41;100.00
48624;BME280;34422;45.802;16.114;2023-05-02T06:13:20;100075.16;;;15.59;100.00
48624;BME280;34422;45.802;16.114;2023-05-02T06:15:47;100064.31;;;15.48;100.00
48624;BME280;34422;45.802;16.114;2023-05-02T06:18:14;100067.13;;;15.53;100.00
48624;BME280;34422;45.802;16.114;2023-05-02T06:20:41;100073.47;;;15.75;100.00
48624;BME280;34422;45.802;16.114;2023-05-02T06:23:07;100076.44;;;15.74;100.00
48624;BME280;34422;45.802;16.114;2023-05-02T06:25:37;100068.09;;;15.80;100.00
48624;BME280;34422;45.802;16.114;2023-05-02T06:28:04;100085.09;;;15.87;100.00
48624;BME280;34422;45.802;16.114;2023-05-02T06:30:31;100095.72;;;16.06;100.00
48624;BME280;34422;45.802;16.114;2023-05-02T06:32:58;100103.91;;;16.06;100.00
48624;BME280;34422;45.802;16.114;2023-05-02T06:35:25;100094.66;;;16.07;100.00
48624;BME280;34422;45.802;16.114;2023-05-02T06:37:52;100099.84;;;16.08;100.00
48624;BME280;34422;45.802;16.114;2023-05-02T06:40:18;100108.41;;;15.95;100.00
48624;BME280;34422;45.802;16.114;2023-05-02T06:42:45;100100.09;;;16.07;100.00
48624;BME280;34422;45.802;16.114;2023-05-02T06:45:12;100110.44;;;16.26;100.00
48624;BME280;34422;45.802;16.114;2023-05-02T06:47:39;100112.19;;;16.11;100.00
48624;BME280;34422;45.802;16.114;2023-05-02T06:50:06;100109.50;;;16.16;100.00
48624;BME280;34422;45.802;16.114;2023-05-02T06:52:37;100113.31;;;16.15;100.00
48624;BME280;34422;45.802;16.114;2023-05-02T06:55:04;100130.47;;;16.32;100.00
48624;BME280;34422;45.802;16.114;2023-05-02T06:57:31;100137.63;;;16.16;100.00
48624;BME280;34422;45.802;16.114;2023-05-02T06:59:57;100127.22;;;16.35;100.00
48624;BME280;34422;45.802;16.114;2023-05-02T07:02:24;100143.66;;;16.40;100.00
48624;BME280;34422;45.802;16.114;2023-05-02T07:04:51;100141.69;;;16.14;100.00
48624;BME280;34422;45.802;16.114;2023-05-02T07:07:18;100141.75;;;16.19;100.00
48624;BME280;34422;45.802;16.114;2023-05-02T07:09:46;100159.13;;;16.13;100.00
48624;BME280;34422;45.802;16.114;2023-05-02T07:12:13;100151.16;;;16.28;100.00
48624;BME280;34422;45.802;16.114;2023-05-02T07:14:40;100147.50;;;16.39;100.00
48624;BME280;34422;45.802;16.114;2023-05-02T07:17:07;100148.06;;;16.41;100.00
48624;BME280;34422;45.802;16.114;2023-05-02T07:19:34;100161.84;;;16.51;100.00
48624;BME280;34422;45.802;16.114;2023-05-02T07:22:01;100170.94;;;16.57;100.00
48624;BME280;34422;45.802;16.114;2023-05-02T07:24:28;100159.75;;;16.58;100.00
48624;BME280;34422;45.802;16.114;2023-05-02T07:26:55;100167.19;;;16.85;100.00
48624;BME280;34422;45.802;16.114;2023-05-02T07:29:21;100171.13;;;16.94;100.00
48624;BME280;34422;45.802;16.114;2023-05-02T07:31:48;100162.03;;;16.88;100.00
48624;BME280;34422;45.802;16.114;2023-05-02T07:34:15;100168.03;;;16.63;100.00
48624;BME280;34422;45.802;16.114;2023-05-02T07:36:42;100172.31;;;16.59;100.00
48624;BME280;34422;45.802;16.114;2023-05-02T07:39:09;100171.31;;;16.44;100.00
48624;BME280;34422;45.802;16.114;2023-05-02T07:41:36;100162.06;;;16.28;100.00
48624;BME280;34422;45.802;16.114;2023-05-02T07:44:02;100177.81;;;16.21;100.00
48624;BME280;34422;45.802;16.114;2023-05-02T07:46:29;100179.47;;;16.22;100.00
48624;BME280;34422;45.802;16.114;2023-05-02T07:48:56;100173.06;;;16.11;100.00
48624;BME280;34422;45.802;16.114;2023-05-02T07:51:23;100192.06;;;16.23;100.00
48624;BME280;34422;45.802;16.114;2023-05-02T07:53:52;100186.09;;;16.26;100.00
48624;BME280;34422;45.802;16.114;2023-05-02T07:56:22;100181.28;;;16.33;100.00
48624;BME280;34422;45.802;16.114;2023-05-02T07:58:49;100190.47;;;16.65;100.00
48624;BME280;34422;45.802;16.114;2023-05-02T08:01:17;100182.31;;;16.49;100.00
48624;BME280;34422;45.802;16.114;2023-05-02T08:03:45;100198.75;;;16.54;100.00
48624;BME280;34422;45.802;16.114;2023-05-02T08:06:12;100188.34;;;16.51;100.00
48624;BME280;34422;45.802;16.114;2023-05-02T08:08:39;100187.56;;;16.55;100.00
48624;BME280;34422;45.802;16.114;2023-05-02T08:11:06;100194.34;;;16.31;100.00
48624;BME280;34422;45.802;16.114;2023-05-02T08:13:33;100192.09;;;16.28;100.00
48624;BME280;34422;45.802;16.114;2023-05-02T08:16:00;100192.56;;;16.20;100.00
48624;BME280;34422;45.802;16.114;2023-05-02T08:18:28;100199.00;;;16.14;100.00
48624;BME280;34422;45.802;16.114;2023-05-02T08:20:55;100210.94;;;16.08;100.00
48624;BME280;34422;45.802;16.114;2023-05-02T08:23:23;100216.91;;;16.05;100.00
48624;BME280;34422;45.802;16.114;2023-05-02T08:25:50;100209.88;;;15.75;100.00
48624;BME280;34422;45.802;16.114;2023-05-02T08:28:17;100216.06;;;15.87;100.00
48624;BME280;34422;45.802;16.114;2023-05-02T08:30:45;100224.19;;;15.82;100.00
48624;BME280;34422;45.802;16.114;2023-05-02T08:33:11;100224.69;;;15.79;100.00
48624;BME280;34422;45.802;16.114;2023-05-02T08:35:38;100218.00;;;15.70;100.00
48624;BME280;34422;45.802;16.114;2023-05-02T08:38:05;100238.06;;;15.81;100.00
48624;BME280;34422;45.802;16.114;2023-05-02T08:40:36;100224.50;;;15.86;100.00
48624;BME280;34422;45.802;16.114;2023-05-02T08:43:04;100222.34;;;15.88;100.00
48624;BME280;34422;45.802;16.114;2023-05-02T08:45:38;100234.72;;;16.29;100.00
48624;BME280;34422;45.802;16.114;2023-05-02T08:48:06;100232.53;;;16.26;100.00
48624;BME280;34422;45.802;16.114;2023-05-02T08:50:40;100234.19;;;16.49;100.00
48624;BME280;34422;45.802;16.114;2023-05-02T08:53:09;100239.34;;;16.45;100.00
48624;BME280;34422;45.802;16.114;2023-05-02T08:55:41;100237.81;;;16.54;100.00
48624;BME280;34422;45.802;16.114;2023-05-02T08:58:08;100242.63;;;16.47;100.00
48624;BME280;34422;45.802;16.114;2023-05-02T09:00:38;100247.00;;;16.10;100.00
48624;BME280;34422;45.802;16.114;2023-05-02T09:03:23;100249.44;;;16.28;100.00
48624;BME280;34422;45.802;16.114;2023-05-02T09:05:53;100229.97;;;16.03;100.00
48624;BME280;34422;45.802;16.114;2023-05-02T09:08:24;100237.25;;;15.97;100.00
48624;BME280;34422;45.802;16.114;2023-05-02T09:10:51;100242.19;;;16.17;100.00
48624;BME280;34422;45.802;16.114;2023-05-02T09:13:40;100234.94;;;16.06;100.00
48624;BME280;34422;45.802;16.114;2023-05-02T09:16:10;100243.34;;;15.87;100.00
48624;BME280;34422;45.802;16.114;2023-05-02T09:18:48;100239.41;;;15.78;100.00
48624;BME280;34422;45.802;16.114;2023-05-02T09:21:16;100243.03;;;15.84;100.00
48624;BME280;34422;45.802;16.114;2023-05-02T09:23:49;100245.34;;;15.75;100.00
48624;BME280;34422;45.802;16.114;2023-05-02T09:26:21;100231.31;;;15.83;100.00
48624;BME280;34422;45.802;16.114;2023-05-02T09:28:51;100238.22;;;15.91;100.00
48624;BME280;34422;45.802;16.114;2023-05-02T09:31:20;100242.38;;;15.93;100.00
48624;BME280;34422;45.802;16.114;2023-05-02T09:33:48;100236.22;;;16.20;100.00
48624;BME280;34422;45.802;16.114;2023-05-02T09:36:17;100239.19;;;16.35;100.00
48624;BME280;34422;45.802;16.114;2023-05-02T09:38:46;100233.91;;;16.28;100.00
48624;BME280;34422;45.802;16.114;2023-05-02T09:41:13;100243.50;;;16.31;100.00
48624;BME280;34422;45.802;16.114;2023-05-02T09:43:40;100250.47;;;16.60;100.00
48624;BME280;34422;45.802;16.114;2023-05-02T09:46:09;100246.44;;;16.46;100.00
48624;BME280;34422;45.802;16.114;2023-05-02T09:48:52;100240.53;;;16.32;100.00
48624;BME280;34422;45.802;16.114;2023-05-02T09:51:19;100250.25;;;16.45;100.00
48624;BME280;34422;45.802;16.114;2023-05-02T09:53:47;100246.38;;;16.41;100.00
48624;BME280;34422;45.802;16.114;2023-05-02T09:56:14;100248.03;;;16.42;100.00
48624;BME280;34422;45.802;16.114;2023-05-02T09:58:41;100249.63;;;16.38;100.00
48624;BME280;34422;45.802;16.114;2023-05-02T10:01:14;100241.13;;;16.56;100.00
48624;BME280;34422;45.802;16.114;2023-05-02T10:03:47;100250.34;;;16.67;100.00
48624;BME280;34422;45.802;16.114;2023-05-02T10:06:14;100251.13;;;16.67;100.00
48624;BME280;34422;45.802;16.114;2023-05-02T10:08:42;100256.75;;;16.39;100.00
48624;BME280;34422;45.802;16.114;2023-05-02T10:11:11;100248.78;;;16.38;100.00
48624;BME280;34422;45.802;16.114;2023-05-02T10:13:39;100243.69;;;16.08;100.00
48624;BME280;34422;45.802;16.114;2023-05-02T10:16:11;100242.78;;;16.02;100.00
48624;BME280;34422;45.802;16.114;2023-05-02T10:18:41;100246.31;;;16.19;100.00
48624;BME280;34422;45.802;16.114;2023-05-02T10:21:22;100254.59;;;16.24;100.00
48624;BME280;34422;45.802;16.114;2023-05-02T10:23:50;100250.44;;;16.39;100.00
48624;BME280;34422;45.802;16.114;2023-05-02T10:26:22;100257.88;;;16.43;100.00
48624;BME280;34422;45.802;16.114;2023-05-02T10:28:55;100257.03;;;16.43;100.00
48624;BME280;34422;45.802;16.114;2023-05-02T10:31:22;100243.75;;;16.29;100.00
48624;BME280;34422;45.802;16.114;2023-05-02T10:33:53;100248.59;;;16.44;100.00
48624;BME280;34422;45.802;16.114;2023-05-02T10:36:21;100255.69;;;16.62;100.00
48624;BME280;34422;45.802;16.114;2023-05-02T10:38:49;100251.91;;;16.85;100.00
48624;BME280;34422;45.802;16.114;2023-05-02T10:41:22;100244.66;;;16.74;100.00
48624;BME280;34422;45.802;16.114;2023-05-02T10:43:51;100245.81;;;16.99;100.00
48624;BME280;34422;45.802;16.114;2023-05-02T10:46:33;100238.00;;;16.86;100.00
48624;BME280;34422;45.802;16.114;2023-05-02T10:49:10;100239.66;;;16.65;100.00
48624;BME280;34422;45.802;16.114;2023-05-02T10:51:41;100237.41;;;16.24;100.00
48624;BME280;34422;45.802;16.114;2023-05-02T10:54:24;100257.09;;;16.26;100.00
48624;BME280;34422;45.802;16.114;2023-05-02T10:57:03;100250.97;;;16.19;100.00
48624;BME280;34422;45.802;16.114;2023-05-02T10:59:40;100255.59;;;16.18;100.00
48624;BME280;34422;45.802;16.114;2023-05-02T11:05:03;100261.88;;;16.19;100.00
48624;BME280;34422;45.802;16.114;2023-05-02T11:07:32;100248.81;;;15.87;100.00
48624;BME280;34422;45.802;16.114;2023-05-02T11:12:48;100267.69;;;16.06;100.00
48624;BME280;34422;45.802;16.114;2023-05-02T11:20:42;100266.13;;;16.10;100.00
48624;BME280;34422;45.802;16.114;2023-05-02T11:25:55;100280.56;;;16.27;100.00
48624;BME280;34422;45.802;16.114;2023-05-02T11:28:41;100270.78;;;16.48;100.00
48624;BME280;34422;45.802;16.114;2023-05-02T11:33:57;100282.09;;;16.95;100.00
48624;BME280;34422;45.802;16.114;2023-05-02T11:36:31;100280.09;;;17.07;100.00
48624;BME280;34422;45.802;16.114;2023-05-02T11:39:03;100279.50;;;16.83;100.00
48624;BME280;34422;45.802;16.114;2023-05-02T11:41:41;100274.03;;;16.83;100.00
48624;BME280;34422;45.802;16.114;2023-05-02T11:44:08;100282.84;;;16.68;100.00
48624;BME280;34422;45.802;16.114;2023-05-02T11:46:39;100277.53;;;16.79;100.00
48624;BME280;34422;45.802;16.114;2023-05-02T11:49:05;100286.31;;;16.81;100.00
48624;BME280;34422;45.802;16.114;2023-05-02T11:51:38;100288.47;;;16.79;100.00
48624;BME280;34422;45.802;16.114;2023-05-02T11:54:05;100287.94;;;16.82;100.00
48624;BME280;34422;45.802;16.114;2023-05-02T11:56:33;100281.00;;;16.96;100.00
48624;BME280;34422;45.802;16.114;2023-05-02T11:59:02;100291.44;;;16.77;100.00
48624;BME280;34422;45.802;16.114;2023-05-02T12:01:29;100285.94;;;16.94;100.00
48624;BME280;34422;45.802;16.114;2023-05-02T12:04:07;100286.81;;;17.21;100.00
48624;BME280;34422;45.802;16.114;2023-05-02T12:06:34;100293.00;;;17.38;100.00
48624;BME280;34422;45.802;16.114;2023-05-02T12:09:08;100292.31;;;17.48;100.00
48624;BME280;34422;45.802;16.114;2023-05-02T12:11:35;100281.91;;;17.50;100.00
48624;BME280;34422;45.802;16.114;2023-05-02T12:14:04;100292.06;;;17.28;100.00
48624;BME280;34422;45.802;16.114;2023-05-02T12:16:32;100287.81;;;17.15;100.00
48624;BME280;34422;45.802;16.114;2023-05-02T12:18:59;100283.69;;;17.13;100.00
48624;BME280;34422;45.802;16.114;2023-05-02T12:21:27;100285.56;;;17.07;100.00
48624;BME280;34422;45.802;16.114;2023-05-02T12:23:55;100299.78;;;17.09;100.00
48624;BME280;34422;45.802;16.114;2023-05-02T12:26:25;100289.41;;;17.11;100.00
48624;BME280;34422;45.802;16.114;2023-05-02T12:28:56;100293.38;;;17.20;100.00
48624;BME280;34422;45.802;16.114;2023-05-02T12:31:27;100285.56;;;17.07;100.00
48624;BME280;34422;45.802;16.114;2023-05-02T12:33:56;100291.91;;;16.91;100.00
48624;BME280;34422;45.802;16.114;2023-05-02T12:36:25;100285.66;;;16.74;100.00
48624;BME280;34422;45.802;16.114;2023-05-02T12:38:56;100287.31;;;16.58;100.00
48624;BME280;34422;45.802;16.114;2023-05-02T12:41:29;100303.22;;;16.44;100.00
48624;BME280;34422;45.802;16.114;2023-05-02T12:43:56;100305.94;;;16.44;100.00
48624;BME280;34422;45.802;16.114;2023-05-02T12:46:24;100299.31;;;16.40;100.00
48624;BME280;34422;45.802;16.114;2023-05-02T12:49:08;100301.81;;;16.42;100.00
48624;BME280;34422;45.802;16.114;2023-05-02T12:51:39;100309.53;;;16.28;100.00
48624;BME280;34422;45.802;16.114;2023-05-02T12:54:06;100304.63;;;16.30;100.00
48624;BME280;34422;45.802;16.114;2023-05-02T12:56:40;100302.72;;;16.47;100.00
48624;BME280;34422;45.802;16.114;2023-05-02T12:59:23;100306.03;;;16.49;100.00
48624;BME280;34422;45.802;16.114;2023-05-02T13:01:51;100294.78;;;16.29;100.00
48624;BME280;34422;45.802;16.114;2023-05-02T13:04:18;100298.59;;;16.28;100.00
48624;BME280;34422;45.802;16.114;2023-05-02T13:06:45;100288.50;;;16.28;100.00
48624;BME280;34422;45.802;16.114;2023-05-02T13:09:11;100306.88;;;16.33;100.00
48624;BME280;34422;45.802;16.114;2023-05-02T13:11:38;100310.78;;;16.20;100.00
48624;BME280;34422;45.802;16.114;2023-05-02T13:14:05;100290.84;;;16.20;100.00
48624;BME280;34422;45.802;16.114;2023-05-02T13:16:32;100299.38;;;16.23;100.00
48624;BME280;34422;45.802;16.114;2023-05-02T13:19:00;100276.34;;;16.03;100.00
48624;BME280;34422;45.802;16.114;2023-05-02T13:21:26;100302.75;;;16.30;100.00
48624;BME280;34422;45.802;16.114;2023-05-02T13:23:53;100301.91;;;16.30;100.00
48624;BME280;34422;45.802;16.114;2023-05-02T13:26:20;100305.72;;;16.29;100.00